Pattonville, Texas
Current Conditions -  °F | °C
As of 7:35 AM on Friday 24 Oct 2014 (Local Time) from KPRX Reporting Station
Clear Clear  
Wind Chill: 52°   Ceiling: Unl
Heat Index: 52°   Visibility: 8mi
Dew Point: 45°   Wind: 6mph
Humidity: 76%   Direction: 120°ESE
Pressure: 30.17"   Gusts: NA
Location:  33.58°N, 95.39°W
Report Text: KPRX 241235Z 12005KT 8SM CLR 11/07 A3017 RMK AO1
Loading
Personal Weather Stations






























Interactive Weather Map
Tropical Storm Tracking
New forecast layout! Learn more

10-Day Weather Forecast

Advertisements
Track Severe Weather on mobile